sensor_id;sensor_type;location;lat;lon;timestamp;pressure;altitude;pressure_sealevel;temperature;humidity
65659;BME280;60181;53.258;6.932;2023-05-12T00:01:02;101902.45;;;16.14;68.28
65659;BME280;60181;53.258;6.932;2023-05-12T00:05:06;101901.42;;;16.14;68.50
65659;BME280;60181;53.258;6.932;2023-05-12T00:09:09;101900.55;;;16.14;68.48
65659;BME280;60181;53.258;6.932;2023-05-12T00:13:13;101898.64;;;16.14;68.46
65659;BME280;60181;53.258;6.932;2023-05-12T00:17:17;101895.81;;;16.14;68.58
65659;BME280;60181;53.258;6.932;2023-05-12T00:21:21;101894.24;;;16.13;68.56
65659;BME280;60181;53.258;6.932;2023-05-12T00:25:25;101893.33;;;16.13;68.58
65659;BME280;60181;53.258;6.932;2023-05-12T00:29:29;101892.07;;;16.12;68.75
65659;BME280;60181;53.258;6.932;2023-05-12T00:33:33;101891.02;;;16.14;68.26
65659;BME280;60181;53.258;6.932;2023-05-12T00:37:37;101890.70;;;16.15;68.10
65659;BME280;60181;53.258;6.932;2023-05-12T00:41:41;101890.12;;;16.14;68.25
65659;BME280;60181;53.258;6.932;2023-05-12T00:45:45;101889.70;;;16.13;68.14
65659;BME280;60181;53.258;6.932;2023-05-12T00:49:49;101889.42;;;16.12;68.20
65659;BME280;60181;53.258;6.932;2023-05-12T00:53:53;101889.98;;;16.10;68.17
65659;BME280;60181;53.258;6.932;2023-05-12T00:57:57;101891.85;;;16.09;68.20
65659;BME280;60181;53.258;6.932;2023-05-12T01:02:01;101892.16;;;16.08;68.14
65659;BME280;60181;53.258;6.932;2023-05-12T01:06:12;101892.80;;;16.07;68.06
65659;BME280;60181;53.258;6.932;2023-05-12T01:10:19;101893.27;;;16.06;68.14
65659;BME280;60181;53.258;6.932;2023-05-12T01:14:13;101891.50;;;16.05;68.15
65659;BME280;60181;53.258;6.932;2023-05-12T01:18:18;101889.83;;;16.04;68.09
65659;BME280;60181;53.258;6.932;2023-05-12T01:22:21;101887.98;;;16.03;68.03
65659;BME280;60181;53.258;6.932;2023-05-12T01:26:26;101887.05;;;16.01;68.16
65659;BME280;60181;53.258;6.932;2023-05-12T01:30:29;101883.88;;;16.00;67.96
65659;BME280;60181;53.258;6.932;2023-05-12T01:34:33;101881.30;;;16.00;67.80
65659;BME280;60181;53.258;6.932;2023-05-12T01:38:38;101878.38;;;15.99;67.87
65659;BME280;60181;53.258;6.932;2023-05-12T01:42:41;101877.80;;;15.98;67.90
65659;BME280;60181;53.258;6.932;2023-05-12T01:46:45;101878.68;;;15.98;67.80
65659;BME280;60181;53.258;6.932;2023-05-12T01:50:49;101881.02;;;15.98;67.79
65659;BME280;60181;53.258;6.932;2023-05-12T01:54:53;101883.36;;;15.99;67.68
65659;BME280;60181;53.258;6.932;2023-05-12T01:58:57;101887.41;;;16.00;67.73
65659;BME280;60181;53.258;6.932;2023-05-12T02:03:01;101890.00;;;16.00;67.98
65659;BME280;60181;53.258;6.932;2023-05-12T02:07:05;101892.81;;;16.00;68.07
65659;BME280;60181;53.258;6.932;2023-05-12T02:11:09;101895.01;;;16.00;68.12
65659;BME280;60181;53.258;6.932;2023-05-12T02:15:13;101898.32;;;16.00;68.07
65659;BME280;60181;53.258;6.932;2023-05-12T02:19:20;101901.37;;;16.00;68.21
65659;BME280;60181;53.258;6.932;2023-05-12T02:23:21;101903.41;;;15.99;68.24
65659;BME280;60181;53.258;6.932;2023-05-12T02:27:25;101905.31;;;15.99;68.22
65659;BME280;60181;53.258;6.932;2023-05-12T02:31:29;101908.20;;;15.99;68.13
65659;BME280;60181;53.258;6.932;2023-05-12T02:35:33;101910.69;;;15.99;68.20
65659;BME280;60181;53.258;6.932;2023-05-12T02:39:37;101912.75;;;15.99;68.13
65659;BME280;60181;53.258;6.932;2023-05-12T02:43:41;101914.23;;;15.98;68.17
65659;BME280;60181;53.258;6.932;2023-05-12T02:47:45;101915.89;;;15.98;68.17
65659;BME280;60181;53.258;6.932;2023-05-12T02:51:49;101917.71;;;15.98;68.15
65659;BME280;60181;53.258;6.932;2023-05-12T02:55:53;101918.87;;;15.98;68.13
65659;BME280;60181;53.258;6.932;2023-05-12T02:59:57;101919.11;;;15.99;68.18
65659;BME280;60181;53.258;6.932;2023-05-12T03:04:01;101920.11;;;15.99;68.04
65659;BME280;60181;53.258;6.932;2023-05-12T03:08:05;101920.22;;;15.99;68.13
65659;BME280;60181;53.258;6.932;2023-05-12T03:12:09;101920.04;;;15.99;68.11
65659;BME280;60181;53.258;6.932;2023-05-12T03:16:13;101919.80;;;16.00;68.10
65659;BME280;60181;53.258;6.932;2023-05-12T03:20:17;101919.55;;;16.00;68.17
65659;BME280;60181;53.258;6.932;2023-05-12T03:24:21;101921.04;;;16.00;68.06
65659;BME280;60181;53.258;6.932;2023-05-12T03:28:25;101923.71;;;16.00;68.22
65659;BME280;60181;53.258;6.932;2023-05-12T03:32:29;101927.34;;;16.01;68.19
65659;BME280;60181;53.258;6.932;2023-05-12T03:36:33;101930.59;;;16.02;68.18
65659;BME280;60181;53.258;6.932;2023-05-12T03:40:37;101933.24;;;16.02;68.30
65659;BME280;60181;53.258;6.932;2023-05-12T03:44:41;101935.80;;;16.02;68.36
65659;BME280;60181;53.258;6.932;2023-05-12T03:48:45;101938.95;;;16.02;68.28
65659;BME280;60181;53.258;6.932;2023-05-12T03:52:49;101940.92;;;16.01;68.35
65659;BME280;60181;53.258;6.932;2023-05-12T03:56:53;101942.39;;;16.01;68.44
65659;BME280;60181;53.258;6.932;2023-05-12T04:00:57;101943.13;;;16.01;68.40
65659;BME280;60181;53.258;6.932;2023-05-12T04:05:01;101942.28;;;16.00;68.32
65659;BME280;60181;53.258;6.932;2023-05-12T04:09:05;101941.53;;;16.00;68.31
65659;BME280;60181;53.258;6.932;2023-05-12T04:13:09;101940.46;;;16.00;68.32
65659;BME280;60181;53.258;6.932;2023-05-12T04:17:13;101939.88;;;16.00;68.33
65659;BME280;60181;53.258;6.932;2023-05-12T04:21:17;101938.59;;;16.00;68.25
65659;BME280;60181;53.258;6.932;2023-05-12T04:25:21;101939.00;;;16.01;68.32
65659;BME280;60181;53.258;6.932;2023-05-12T04:29:25;101940.59;;;16.02;68.37
65659;BME280;60181;53.258;6.932;2023-05-12T04:33:29;101942.58;;;16.02;68.27
65659;BME280;60181;53.258;6.932;2023-05-12T04:37:33;101945.06;;;16.02;68.51
65659;BME280;60181;53.258;6.932;2023-05-12T04:41:37;101947.71;;;16.02;68.65
65659;BME280;60181;53.258;6.932;2023-05-12T04:45:41;101949.05;;;16.03;68.62
65659;BME280;60181;53.258;6.932;2023-05-12T04:49:45;101949.35;;;16.02;69.81
65659;BME280;60181;53.258;6.932;2023-05-12T04:53:49;101950.59;;;16.02;69.97
65659;BME280;60181;53.258;6.932;2023-05-12T04:57:53;101952.31;;;16.00;69.81
65659;BME280;60181;53.258;6.932;2023-05-12T05:01:57;101954.13;;;16.00;69.50
65659;BME280;60181;53.258;6.932;2023-05-12T05:06:01;101956.69;;;16.01;69.68
65659;BME280;60181;53.258;6.932;2023-05-12T05:10:05;101959.66;;;16.01;69.62
65659;BME280;60181;53.258;6.932;2023-05-12T05:14:09;101964.06;;;16.01;69.77
65659;BME280;60181;53.258;6.932;2023-05-12T05:18:13;101967.86;;;16.02;69.84
65659;BME280;60181;53.258;6.932;2023-05-12T05:22:17;101972.16;;;16.02;70.15
65659;BME280;60181;53.258;6.932;2023-05-12T05:26:21;101976.25;;;16.03;70.27
65659;BME280;60181;53.258;6.932;2023-05-12T05:30:25;101980.88;;;16.03;70.78
65659;BME280;60181;53.258;6.932;2023-05-12T05:34:29;101984.42;;;16.03;70.23
65659;BME280;60181;53.258;6.932;2023-05-12T05:38:33;101987.02;;;16.04;70.45
65659;BME280;60181;53.258;6.932;2023-05-12T05:42:37;101989.35;;;16.05;70.50
65659;BME280;60181;53.258;6.932;2023-05-12T05:46:41;101993.68;;;16.06;72.00
65659;BME280;60181;53.258;6.932;2023-05-12T05:50:45;101999.46;;;16.06;71.77
65659;BME280;60181;53.258;6.932;2023-05-12T05:54:49;102002.84;;;16.07;71.03
65659;BME280;60181;53.258;6.932;2023-05-12T05:58:53;102007.53;;;16.08;71.07
65659;BME280;60181;53.258;6.932;2023-05-12T06:02:57;102011.61;;;16.10;71.28
65659;BME280;60181;53.258;6.932;2023-05-12T06:07:01;102017.64;;;16.13;71.80
65659;BME280;60181;53.258;6.932;2023-05-12T06:11:05;102023.26;;;16.17;70.90
65659;BME280;60181;53.258;6.932;2023-05-12T06:15:09;102030.13;;;16.19;70.88
65659;BME280;60181;53.258;6.932;2023-05-12T06:19:13;102033.37;;;16.21;70.67
65659;BME280;60181;53.258;6.932;2023-05-12T06:23:17;102037.95;;;16.22;70.68
65659;BME280;60181;53.258;6.932;2023-05-12T06:27:21;102043.63;;;16.21;70.77
65659;BME280;60181;53.258;6.932;2023-05-12T06:31:25;102047.75;;;16.21;70.87
65659;BME280;60181;53.258;6.932;2023-05-12T06:35:29;102049.21;;;16.20;70.93
65659;BME280;60181;53.258;6.932;2023-05-12T06:39:33;102050.70;;;16.20;70.95
65659;BME280;60181;53.258;6.932;2023-05-12T06:43:37;102052.11;;;16.19;71.04
65659;BME280;60181;53.258;6.932;2023-05-12T06:47:41;102055.17;;;16.19;71.25
65659;BME280;60181;53.258;6.932;2023-05-12T06:51:45;102060.80;;;16.19;71.29
65659;BME280;60181;53.258;6.932;2023-05-12T06:55:49;102065.09;;;16.19;71.45
65659;BME280;60181;53.258;6.932;2023-05-12T06:59:53;102069.19;;;16.19;71.64
65659;BME280;60181;53.258;6.932;2023-05-12T07:03:57;102070.40;;;16.18;71.62
65659;BME280;60181;53.258;6.932;2023-05-12T07:08:01;102072.64;;;16.18;71.62
65659;BME280;60181;53.258;6.932;2023-05-12T07:12:05;102074.29;;;16.18;71.64
65659;BME280;60181;53.258;6.932;2023-05-12T07:16:09;102077.80;;;16.18;71.56
65659;BME280;60181;53.258;6.932;2023-05-12T07:20:13;102082.83;;;16.19;71.67
65659;BME280;60181;53.258;6.932;2023-05-12T07:24:17;102085.50;;;16.20;71.58
65659;BME280;60181;53.258;6.932;2023-05-12T07:28:21;102088.34;;;16.21;71.52
65659;BME280;60181;53.258;6.932;2023-05-12T07:32:25;102089.94;;;16.22;71.51
65659;BME280;60181;53.258;6.932;2023-05-12T07:36:29;102090.58;;;16.24;71.41
65659;BME280;60181;53.258;6.932;2023-05-12T07:40:33;102091.02;;;16.25;71.53
65659;BME280;60181;53.258;6.932;2023-05-12T07:44:37;102093.28;;;16.26;71.56
65659;BME280;60181;53.258;6.932;2023-05-12T07:48:41;102094.90;;;16.29;71.34
65659;BME280;60181;53.258;6.932;2023-05-12T07:52:46;102098.38;;;16.35;71.55
65659;BME280;60181;53.258;6.932;2023-05-12T07:56:49;102101.26;;;16.39;71.84
65659;BME280;60181;53.258;6.932;2023-05-12T08:00:53;102102.89;;;16.41;71.98
65659;BME280;60181;53.258;6.932;2023-05-12T08:04:57;102106.17;;;16.44;72.01
65659;BME280;60181;53.258;6.932;2023-05-12T08:09:01;102108.80;;;16.45;72.34
65659;BME280;60181;53.258;6.932;2023-05-12T08:13:05;102110.58;;;16.48;72.16
65659;BME280;60181;53.258;6.932;2023-05-12T08:17:09;102112.02;;;16.52;71.74
65659;BME280;60181;53.258;6.932;2023-05-12T08:21:13;102113.25;;;16.56;71.77
65659;BME280;60181;53.258;6.932;2023-05-12T08:25:17;102115.37;;;16.57;72.22
65659;BME280;60181;53.258;6.932;2023-05-12T08:29:21;102117.66;;;16.60;71.84
65659;BME280;60181;53.258;6.932;2023-05-12T08:33:25;102120.23;;;16.63;72.12
65659;BME280;60181;53.258;6.932;2023-05-12T08:37:29;102120.33;;;16.64;71.72
65659;BME280;60181;53.258;6.932;2023-05-12T08:41:42;102121.19;;;16.68;70.95
65659;BME280;60181;53.258;6.932;2023-05-12T08:45:37;102123.63;;;16.71;70.97
65659;BME280;60181;53.258;6.932;2023-05-12T08:49:41;102126.25;;;16.73;70.87
65659;BME280;60181;53.258;6.932;2023-05-12T08:53:46;102128.18;;;16.77;70.40
65659;BME280;60181;53.258;6.932;2023-05-12T08:57:49;102128.03;;;16.82;70.15
65659;BME280;60181;53.258;6.932;2023-05-12T09:01:53;102129.10;;;16.89;69.82
65659;BME280;60181;53.258;6.932;2023-05-12T09:05:57;102131.70;;;16.97;69.49
65659;BME280;60181;53.258;6.932;2023-05-12T09:10:01;102136.21;;;17.05;69.47
65659;BME280;60181;53.258;6.932;2023-05-12T09:14:09;102138.67;;;17.15;68.97
65659;BME280;60181;53.258;6.932;2023-05-12T09:18:09;102139.73;;;17.27;68.36
65659;BME280;60181;53.258;6.932;2023-05-12T09:22:13;102141.39;;;17.35;68.63
65659;BME280;60181;53.258;6.932;2023-05-12T09:26:17;102143.24;;;17.39;68.85
65659;BME280;60181;53.258;6.932;2023-05-12T09:30:30;102145.43;;;17.41;68.97
65659;BME280;60181;53.258;6.932;2023-05-12T09:34:31;102147.30;;;17.44;69.10
65659;BME280;60181;53.258;6.932;2023-05-12T09:38:29;102149.03;;;17.47;68.85
65659;BME280;60181;53.258;6.932;2023-05-12T09:42:33;102151.79;;;17.49;68.83
65659;BME280;60181;53.258;6.932;2023-05-12T09:46:37;102153.09;;;17.51;68.94
65659;BME280;60181;53.258;6.932;2023-05-12T09:50:41;102153.97;;;17.53;68.96
65659;BME280;60181;53.258;6.932;2023-05-12T09:54:46;102155.69;;;17.57;68.37
65659;BME280;60181;53.258;6.932;2023-05-12T09:58:49;102157.79;;;17.58;69.14
65659;BME280;60181;53.258;6.932;2023-05-12T10:02:53;102158.42;;;17.60;68.42
65659;BME280;60181;53.258;6.932;2023-05-12T10:06:57;102158.59;;;17.62;68.67
65659;BME280;60181;53.258;6.932;2023-05-12T10:11:01;102159.12;;;17.63;68.66
65659;BME280;60181;53.258;6.932;2023-05-12T10:15:05;102160.88;;;17.64;69.21
65659;BME280;60181;53.258;6.932;2023-05-12T10:19:09;102162.06;;;17.65;68.86
65659;BME280;60181;53.258;6.932;2023-05-12T10:23:13;102163.25;;;17.66;68.77
65659;BME280;60181;53.258;6.932;2023-05-12T10:27:17;102162.61;;;17.67;68.83
65659;BME280;60181;53.258;6.932;2023-05-12T10:31:21;102161.64;;;17.68;69.03
65659;BME280;60181;53.258;6.932;2023-05-12T10:35:31;102161.81;;;17.68;68.96
65659;BME280;60181;53.258;6.932;2023-05-12T10:39:29;102162.03;;;17.67;69.24
65659;BME280;60181;53.258;6.932;2023-05-12T10:43:39;102161.86;;;17.67;69.06
65659;BME280;60181;53.258;6.932;2023-05-12T10:47:37;102162.30;;;17.68;69.50
65659;BME280;60181;53.258;6.932;2023-05-12T10:51:47;102161.97;;;17.68;69.10
65659;BME280;60181;53.258;6.932;2023-05-12T10:55:45;102161.99;;;17.69;69.34
65659;BME280;60181;53.258;6.932;2023-05-12T10:59:49;102162.43;;;17.70;69.25
65659;BME280;60181;53.258;6.932;2023-05-12T11:03:52;102161.52;;;17.71;69.11
65659;BME280;60181;53.258;6.932;2023-05-12T11:07:57;102161.21;;;17.72;68.89
65659;BME280;60181;53.258;6.932;2023-05-12T11:12:00;102160.82;;;17.73;68.76
65659;BME280;60181;53.258;6.932;2023-05-12T11:16:05;102160.83;;;17.74;68.59
65659;BME280;60181;53.258;6.932;2023-05-12T11:20:09;102160.69;;;17.75;68.59
65659;BME280;60181;53.258;6.932;2023-05-12T11:24:12;102160.53;;;17.75;68.63
65659;BME280;60181;53.258;6.932;2023-05-12T11:28:16;102160.75;;;17.74;68.85
65659;BME280;60181;53.258;6.932;2023-05-12T11:32:20;102160.27;;;17.73;68.70
65659;BME280;60181;53.258;6.932;2023-05-12T11:36:24;102158.94;;;17.73;68.62
65659;BME280;60181;53.258;6.932;2023-05-12T11:40:28;102157.36;;;17.73;68.80
65659;BME280;60181;53.258;6.932;2023-05-12T11:44:32;102159.01;;;17.73;68.80
65659;BME280;60181;53.258;6.932;2023-05-12T11:48:36;102160.40;;;17.73;68.78
65659;BME280;60181;53.258;6.932;2023-05-12T11:52:40;102160.32;;;17.72;68.87
65659;BME280;60181;53.258;6.932;2023-05-12T11:56:48;102160.16;;;17.72;68.49
65659;BME280;60181;53.258;6.932;2023-05-12T12:00:48;102161.65;;;17.72;68.39
65659;BME280;60181;53.258;6.932;2023-05-12T12:04:52;102163.03;;;17.72;68.01
65659;BME280;60181;53.258;6.932;2023-05-12T12:08:57;102164.29;;;17.72;67.77
65659;BME280;60181;53.258;6.932;2023-05-12T12:13:00;102164.22;;;17.72;67.63
65659;BME280;60181;53.258;6.932;2023-05-12T12:17:04;102164.54;;;17.72;67.59
65659;BME280;60181;53.258;6.932;2023-05-12T12:21:08;102165.63;;;17.73;67.46
65659;BME280;60181;53.258;6.932;2023-05-12T12:25:12;102167.28;;;17.73;67.31
65659;BME280;60181;53.258;6.932;2023-05-12T12:29:16;102168.44;;;17.73;67.21
65659;BME280;60181;53.258;6.932;2023-05-12T12:33:20;102169.51;;;17.73;67.09
65659;BME280;60181;53.258;6.932;2023-05-12T12:37:24;102169.54;;;17.73;66.49
65659;BME280;60181;53.258;6.932;2023-05-12T12:41:28;102169.95;;;17.74;65.80
65659;BME280;60181;53.258;6.932;2023-05-12T12:45:32;102169.19;;;17.73;65.89
65659;BME280;60181;53.258;6.932;2023-05-12T12:49:36;102168.77;;;17.73;65.86
65659;BME280;60181;53.258;6.932;2023-05-12T12:53:40;102169.02;;;17.72;64.69
65659;BME280;60181;53.258;6.932;2023-05-12T12:57:44;102169.93;;;17.73;64.44
65659;BME280;60181;53.258;6.932;2023-05-12T13:01:48;102170.24;;;17.71;64.54
65659;BME280;60181;53.258;6.932;2023-05-12T13:05:52;102170.39;;;17.70;63.85
65659;BME280;60181;53.258;6.932;2023-05-12T13:09:56;102170.11;;;17.69;63.76
65659;BME280;60181;53.258;6.932;2023-05-12T13:14:00;102170.45;;;17.69;62.60
65659;BME280;60181;53.258;6.932;2023-05-12T13:18:04;102171.35;;;17.69;62.87
65659;BME280;60181;53.258;6.932;2023-05-12T13:22:08;102172.56;;;17.71;62.36
65659;BME280;60181;53.258;6.932;2023-05-12T13:26:12;102173.77;;;17.74;61.28
65659;BME280;60181;53.258;6.932;2023-05-12T13:30:16;102174.58;;;17.76;60.33
65659;BME280;60181;53.258;6.932;2023-05-12T13:34:20;102172.19;;;17.78;60.15
65659;BME280;60181;53.258;6.932;2023-05-12T13:38:24;102170.29;;;17.78;60.14
65659;BME280;60181;53.258;6.932;2023-05-12T13:42:28;102169.80;;;17.77;60.21
65659;BME280;60181;53.258;6.932;2023-05-12T13:46:32;102170.62;;;17.77;59.95
65659;BME280;60181;53.258;6.932;2023-05-12T13:50:36;102170.15;;;17.76;60.13
65659;BME280;60181;53.258;6.932;2023-05-12T13:54:40;102168.34;;;17.76;59.73
65659;BME280;60181;53.258;6.932;2023-05-12T13:58:44;102166.54;;;17.77;59.79
65659;BME280;60181;53.258;6.932;2023-05-12T14:02:48;102165.16;;;17.78;60.21
65659;BME280;60181;53.258;6.932;2023-05-12T14:06:52;102163.89;;;17.77;60.31
65659;BME280;60181;53.258;6.932;2023-05-12T14:10:56;102162.46;;;17.75;61.21
65659;BME280;60181;53.258;6.932;2023-05-12T14:15:00;102163.40;;;17.74;60.51
65659;BME280;60181;53.258;6.932;2023-05-12T14:19:04;102163.14;;;17.72;61.15
65659;BME280;60181;53.258;6.932;2023-05-12T14:23:08;102162.33;;;17.73;60.63
65659;BME280;60181;53.258;6.932;2023-05-12T14:27:12;102162.83;;;17.74;60.88
65659;BME280;60181;53.258;6.932;2023-05-12T14:31:16;102163.04;;;17.76;60.33
65659;BME280;60181;53.258;6.932;2023-05-12T14:35:20;102164.12;;;17.75;60.19
65659;BME280;60181;53.258;6.932;2023-05-12T14:39:24;102165.73;;;17.78;60.28
65659;BME280;60181;53.258;6.932;2023-05-12T14:43:28;102166.09;;;17.79;60.03
65659;BME280;60181;53.258;6.932;2023-05-12T14:47:32;102168.89;;;17.82;60.15
65659;BME280;60181;53.258;6.932;2023-05-12T14:51:36;102170.98;;;17.88;60.09
65659;BME280;60181;53.258;6.932;2023-05-12T14:55:40;102173.44;;;17.95;59.88
65659;BME280;60181;53.258;6.932;2023-05-12T14:59:44;102175.31;;;18.00;59.59
65659;BME280;60181;53.258;6.932;2023-05-12T15:03:48;102177.40;;;18.02;59.90
65659;BME280;60181;53.258;6.932;2023-05-12T15:07:52;102180.00;;;18.02;60.02
65659;BME280;60181;53.258;6.932;2023-05-12T15:11:56;102182.37;;;18.02;60.28
65659;BME280;60181;53.258;6.932;2023-05-12T15:16:00;102184.34;;;18.01;60.70
65659;BME280;60181;53.258;6.932;2023-05-12T15:20:05;102185.16;;;17.99;60.96
65659;BME280;60181;53.258;6.932;2023-05-12T15:24:08;102186.30;;;17.98;61.23
65659;BME280;60181;53.258;6.932;2023-05-12T15:28:12;102186.66;;;17.97;61.63
65659;BME280;60181;53.258;6.932;2023-05-12T15:32:16;102187.19;;;17.95;62.01
65659;BME280;60181;53.258;6.932;2023-05-12T15:36:20;102187.70;;;17.94;62.32
65659;BME280;60181;53.258;6.932;2023-05-12T15:40:24;102188.30;;;17.96;62.37
65659;BME280;60181;53.258;6.932;2023-05-12T15:44:28;102187.73;;;17.97;62.31
65659;BME280;60181;53.258;6.932;2023-05-12T15:48:32;102188.70;;;17.98;62.81
65659;BME280;60181;53.258;6.932;2023-05-12T15:52:36;102190.37;;;17.99;62.84
65659;BME280;60181;53.258;6.932;2023-05-12T15:56:40;102192.21;;;17.99;63.09
65659;BME280;60181;53.258;6.932;2023-05-12T16:00:44;102193.37;;;17.99;63.25
65659;BME280;60181;53.258;6.932;2023-05-12T16:04:48;102194.76;;;17.98;63.49
65659;BME280;60181;53.258;6.932;2023-05-12T16:08:52;102197.25;;;17.96;63.75
65659;BME280;60181;53.258;6.932;2023-05-12T16:12:56;102199.30;;;17.95;63.85
65659;BME280;60181;53.258;6.932;2023-05-12T16:17:00;102200.10;;;17.94;63.96
65659;BME280;60181;53.258;6.932;2023-05-12T16:21:04;102200.86;;;17.93;64.09
65659;BME280;60181;53.258;6.932;2023-05-12T16:25:08;102201.33;;;17.92;64.21
65659;BME280;60181;53.258;6.932;2023-05-12T16:29:12;102201.47;;;17.91;64.35
65659;BME280;60181;53.258;6.932;2023-05-12T16:33:16;102201.45;;;17.90;64.46
65659;BME280;60181;53.258;6.932;2023-05-12T16:37:20;102200.51;;;17.89;64.57
65659;BME280;60181;53.258;6.932;2023-05-12T16:41:24;102200.90;;;17.88;64.68
65659;BME280;60181;53.258;6.932;2023-05-12T16:45:28;102201.72;;;17.86;64.82
65659;BME280;60181;53.258;6.932;2023-05-12T16:49:32;102202.24;;;17.85;64.89
65659;BME280;60181;53.258;6.932;2023-05-12T16:53:36;102202.91;;;17.85;65.51
65659;BME280;60181;53.258;6.932;2023-05-12T16:57:40;102203.49;;;17.85;65.84
65659;BME280;60181;53.258;6.932;2023-05-12T17:01:44;102203.02;;;17.86;65.87
65659;BME280;60181;53.258;6.932;2023-05-12T17:05:48;102203.20;;;17.86;65.90
65659;BME280;60181;53.258;6.932;2023-05-12T17:09:52;102204.10;;;17.86;65.76
65659;BME280;60181;53.258;6.932;2023-05-12T17:13:56;102205.16;;;17.84;65.85
65659;BME280;60181;53.258;6.932;2023-05-12T17:18:00;102206.37;;;17.83;65.88
65659;BME280;60181;53.258;6.932;2023-05-12T17:22:04;102206.91;;;17.81;65.91
65659;BME280;60181;53.258;6.932;2023-05-12T17:26:08;102208.54;;;17.80;65.78
65659;BME280;60181;53.258;6.932;2023-05-12T17:30:12;102211.25;;;17.79;65.69
65659;BME280;60181;53.258;6.932;2023-05-12T17:34:16;102214.92;;;17.80;65.68
65659;BME280;60181;53.258;6.932;2023-05-12T17:38:20;102218.73;;;17.80;65.73
65659;BME280;60181;53.258;6.932;2023-05-12T17:42:24;102221.86;;;17.79;65.76
65659;BME280;60181;53.258;6.932;2023-05-12T17:46:28;102224.87;;;17.80;65.63
65659;BME280;60181;53.258;6.932;2023-05-12T17:50:32;102228.68;;;17.81;65.60
65659;BME280;60181;53.258;6.932;2023-05-12T17:54:36;102231.77;;;17.81;65.58
65659;BME280;60181;53.258;6.932;2023-05-12T17:58:40;102234.17;;;17.81;65.56
65659;BME280;60181;53.258;6.932;2023-05-12T18:02:44;102236.83;;;17.81;65.55
65659;BME280;60181;53.258;6.932;2023-05-12T18:06:48;102238.95;;;17.81;65.50
65659;BME280;60181;53.258;6.932;2023-05-12T18:10:52;102241.19;;;17.80;65.43
65659;BME280;60181;53.258;6.932;2023-05-12T18:14:56;102244.09;;;17.80;65.55
65659;BME280;60181;53.258;6.932;2023-05-12T18:19:00;102248.80;;;17.79;65.36
65659;BME280;60181;53.258;6.932;2023-05-12T18:23:04;102252.00;;;17.78;65.35
65659;BME280;60181;53.258;6.932;2023-05-12T18:27:08;102256.65;;;17.77;65.28
65659;BME280;60181;53.258;6.932;2023-05-12T18:31:12;102261.60;;;17.76;65.21
65659;BME280;60181;53.258;6.932;2023-05-12T18:35:16;102264.36;;;17.75;65.11
65659;BME280;60181;53.258;6.932;2023-05-12T18:39:20;102268.07;;;17.74;65.15
65659;BME280;60181;53.258;6.932;2023-05-12T18:43:24;102271.77;;;17.72;64.97
65659;BME280;60181;53.258;6.932;2023-05-12T18:47:28;102274.54;;;17.71;64.85
65659;BME280;60181;53.258;6.932;2023-05-12T18:51:32;102278.08;;;17.69;64.96
65659;BME280;60181;53.258;6.932;2023-05-12T18:55:36;102281.13;;;17.68;64.98
65659;BME280;60181;53.258;6.932;2023-05-12T18:59:40;102284.72;;;17.66;65.01
65659;BME280;60181;53.258;6.932;2023-05-12T19:03:44;102289.17;;;17.64;64.97
65659;BME280;60181;53.258;6.932;2023-05-12T19:07:48;102294.62;;;17.63;64.98
65659;BME280;60181;53.258;6.932;2023-05-12T19:11:52;102298.95;;;17.61;65.02
65659;BME280;60181;53.258;6.932;2023-05-12T19:15:56;102304.24;;;17.60;65.00
65659;BME280;60181;53.258;6.932;2023-05-12T19:20:00;102308.48;;;17.58;65.14
65659;BME280;60181;53.258;6.932;2023-05-12T19:24:04;102313.84;;;17.57;65.16
65659;BME280;60181;53.258;6.932;2023-05-12T19:28:08;102317.72;;;17.55;65.20
65659;BME280;60181;53.258;6.932;2023-05-12T19:32:12;102321.50;;;17.54;65.24
65659;BME280;60181;53.258;6.932;2023-05-12T19:36:16;102324.05;;;17.53;65.27
65659;BME280;60181;53.258;6.932;2023-05-12T19:40:20;102326.26;;;17.52;65.31
65659;BME280;60181;53.258;6.932;2023-05-12T19:44:24;102328.72;;;17.51;65.32
65659;BME280;60181;53.258;6.932;2023-05-12T19:48:28;102331.92;;;17.51;66.23
65659;BME280;60181;53.258;6.932;2023-05-12T19:52:32;102334.59;;;17.51;66.13
65659;BME280;60181;53.258;6.932;2023-05-12T19:56:36;102336.67;;;17.51;66.16
65659;BME280;60181;53.258;6.932;2023-05-12T20:00:40;102337.55;;;17.50;66.18
65659;BME280;60181;53.258;6.932;2023-05-12T20:04:44;102339.09;;;17.49;66.17
65659;BME280;60181;53.258;6.932;2023-05-12T20:08:48;102340.89;;;17.48;66.20
65659;BME280;60181;53.258;6.932;2023-05-12T20:12:52;102343.30;;;17.47;66.17
65659;BME280;60181;53.258;6.932;2023-05-12T20:16:56;102345.92;;;17.46;66.14
65659;BME280;60181;53.258;6.932;2023-05-12T20:21:00;102348.21;;;17.46;66.18
65659;BME280;60181;53.258;6.932;2023-05-12T20:25:04;102349.88;;;17.45;66.20
65659;BME280;60181;53.258;6.932;2023-05-12T20:29:08;102351.92;;;17.45;66.22
65659;BME280;60181;53.258;6.932;2023-05-12T20:33:12;102353.46;;;17.44;66.24
65659;BME280;60181;53.258;6.932;2023-05-12T20:37:16;102355.70;;;17.43;66.24
65659;BME280;60181;53.258;6.932;2023-05-12T20:41:20;102358.32;;;17.43;66.25
65659;BME280;60181;53.258;6.932;2023-05-12T20:45:24;102359.40;;;17.42;66.30
65659;BME280;60181;53.258;6.932;2023-05-12T20:49:28;102361.94;;;17.41;66.30
65659;BME280;60181;53.258;6.932;2023-05-12T20:53:32;102363.68;;;17.41;66.28
65659;BME280;60181;53.258;6.932;2023-05-12T20:57:36;102364.81;;;17.40;66.30
65659;BME280;60181;53.258;6.932;2023-05-12T21:01:40;102364.98;;;17.40;66.29
65659;BME280;60181;53.258;6.932;2023-05-12T21:05:44;102365.67;;;17.41;66.56
65659;BME280;60181;53.258;6.932;2023-05-12T21:09:48;102365.34;;;17.41;64.15
65659;BME280;60181;53.258;6.932;2023-05-12T21:13:52;102365.61;;;17.39;62.91